sensor_id;sensor_type;location;lat;lon;timestamp;P1;durP1;ratioP1;P2;durP2;ratioP2
17145;SDS011;8688;54.444;18.444;2023-06-10T00:00:02;6.15;;;2.30;;
17145;SDS011;8688;54.444;18.444;2023-06-10T00:02:33;6.72;;;2.60;;
17145;SDS011;8688;54.444;18.444;2023-06-10T00:05:01;5.75;;;2.40;;
17145;SDS011;8688;54.444;18.444;2023-06-10T00:07:29;5.40;;;2.60;;
17145;SDS011;8688;54.444;18.444;2023-06-10T00:09:56;8.57;;;2.58;;
17145;SDS011;8688;54.444;18.444;2023-06-10T00:12:24;7.80;;;2.08;;
17145;SDS011;8688;54.444;18.444;2023-06-10T00:14:54;6.13;;;2.33;;
17145;SDS011;8688;54.444;18.444;2023-06-10T00:17:21;3.67;;;2.10;;
17145;SDS011;8688;54.444;18.444;2023-06-10T00:19:51;5.43;;;2.13;;
17145;SDS011;8688;54.444;18.444;2023-06-10T00:22:19;8.43;;;2.63;;
17145;SDS011;8688;54.444;18.444;2023-06-10T00:24:47;7.25;;;2.30;;
17145;SDS011;8688;54.444;18.444;2023-06-10T00:27:16;8.10;;;2.20;;
17145;SDS011;8688;54.444;18.444;2023-06-10T00:29:43;5.07;;;2.10;;
17145;SDS011;8688;54.444;18.444;2023-06-10T00:32:11;4.53;;;2.20;;
17145;SDS011;8688;54.444;18.444;2023-06-10T00:34:38;6.22;;;2.10;;
17145;SDS011;8688;54.444;18.444;2023-06-10T00:37:07;7.38;;;2.10;;
17145;SDS011;8688;54.444;18.444;2023-06-10T00:39:35;7.22;;;2.25;;
17145;SDS011;8688;54.444;18.444;2023-06-10T00:42:03;5.28;;;2.47;;
17145;SDS011;8688;54.444;18.444;2023-06-10T00:44:32;4.53;;;2.20;;
17145;SDS011;8688;54.444;18.444;2023-06-10T00:46:59;4.45;;;2.00;;
17145;SDS011;8688;54.444;18.444;2023-06-10T00:49:27;8.27;;;2.50;;
17145;SDS011;8688;54.444;18.444;2023-06-10T00:51:55;3.70;;;2.25;;
17145;SDS011;8688;54.444;18.444;2023-06-10T00:54:24;6.70;;;2.03;;
17145;SDS011;8688;54.444;18.444;2023-06-10T00:56:52;10.68;;;2.33;;
17145;SDS011;8688;54.444;18.444;2023-06-10T00:59:20;3.63;;;1.95;;
17145;SDS011;8688;54.444;18.444;2023-06-10T01:01:48;5.55;;;2.05;;
17145;SDS011;8688;54.444;18.444;2023-06-10T01:04:17;4.75;;;2.05;;
17145;SDS011;8688;54.444;18.444;2023-06-10T01:06:48;7.15;;;2.25;;
17145;SDS011;8688;54.444;18.444;2023-06-10T01:09:25;8.15;;;2.17;;
17145;SDS011;8688;54.444;18.444;2023-06-10T01:12:05;4.35;;;2.15;;
17145;SDS011;8688;54.444;18.444;2023-06-10T01:14:42;7.68;;;2.20;;
17145;SDS011;8688;54.444;18.444;2023-06-10T01:17:10;8.82;;;2.00;;
17145;SDS011;8688;54.444;18.444;2023-06-10T01:19:38;3.65;;;2.08;;
17145;SDS011;8688;54.444;18.444;2023-06-10T01:22:07;5.90;;;1.80;;
17145;SDS011;8688;54.444;18.444;2023-06-10T01:24:35;8.98;;;2.10;;
17145;SDS011;8688;54.444;18.444;2023-06-10T01:27:05;4.70;;;1.80;;
17145;SDS011;8688;54.444;18.444;2023-06-10T01:29:41;4.93;;;1.63;;
17145;SDS011;8688;54.444;18.444;2023-06-10T01:32:14;8.75;;;2.03;;
17145;SDS011;8688;54.444;18.444;2023-06-10T01:34:45;4.43;;;1.95;;
17145;SDS011;8688;54.444;18.444;2023-06-10T01:37:16;8.82;;;1.80;;
17145;SDS011;8688;54.444;18.444;2023-06-10T01:39:45;11.75;;;2.33;;
17145;SDS011;8688;54.444;18.444;2023-06-10T01:42:14;4.88;;;1.73;;
17145;SDS011;8688;54.444;18.444;2023-06-10T01:44:42;4.13;;;1.75;;
17145;SDS011;8688;54.444;18.444;2023-06-10T01:47:10;5.20;;;1.70;;
17145;SDS011;8688;54.444;18.444;2023-06-10T01:49:37;5.78;;;1.85;;
17145;SDS011;8688;54.444;18.444;2023-06-10T01:52:05;5.85;;;1.92;;
17145;SDS011;8688;54.444;18.444;2023-06-10T01:54:35;6.25;;;1.88;;
17145;SDS011;8688;54.444;18.444;2023-06-10T01:57:03;5.03;;;1.65;;
17145;SDS011;8688;54.444;18.444;2023-06-10T01:59:31;5.00;;;1.70;;
17145;SDS011;8688;54.444;18.444;2023-06-10T02:01:59;5.07;;;1.90;;
17145;SDS011;8688;54.444;18.444;2023-06-10T02:04:26;5.60;;;1.52;;
17145;SDS011;8688;54.444;18.444;2023-06-10T02:06:54;3.72;;;1.73;;
17145;SDS011;8688;54.444;18.444;2023-06-10T02:09:21;4.72;;;2.00;;
17145;SDS011;8688;54.444;18.444;2023-06-10T02:11:51;5.47;;;1.90;;
17145;SDS011;8688;54.444;18.444;2023-06-10T02:14:18;5.60;;;1.75;;
17145;SDS011;8688;54.444;18.444;2023-06-10T02:16:46;7.75;;;1.88;;
17145;SDS011;8688;54.444;18.444;2023-06-10T02:19:13;4.97;;;1.65;;
17145;SDS011;8688;54.444;18.444;2023-06-10T02:21:41;7.85;;;1.73;;
17145;SDS011;8688;54.444;18.444;2023-06-10T02:24:08;5.68;;;1.73;;
17145;SDS011;8688;54.444;18.444;2023-06-10T02:26:36;4.80;;;1.70;;
17145;SDS011;8688;54.444;18.444;2023-06-10T02:29:05;5.63;;;1.77;;
17145;SDS011;8688;54.444;18.444;2023-06-10T02:31:32;7.28;;;1.38;;
17145;SDS011;8688;54.444;18.444;2023-06-10T02:34:00;2.92;;;1.52;;
17145;SDS011;8688;54.444;18.444;2023-06-10T02:36:28;7.35;;;1.70;;
17145;SDS011;8688;54.444;18.444;2023-06-10T02:38:56;4.40;;;1.65;;
17145;SDS011;8688;54.444;18.444;2023-06-10T02:41:24;8.10;;;2.55;;
17145;SDS011;8688;54.444;18.444;2023-06-10T02:43:52;3.70;;;1.58;;
17145;SDS011;8688;54.444;18.444;2023-06-10T02:46:21;5.72;;;1.98;;
17145;SDS011;8688;54.444;18.444;2023-06-10T02:48:48;6.00;;;1.60;;
17145;SDS011;8688;54.444;18.444;2023-06-10T02:51:17;5.35;;;1.63;;
17145;SDS011;8688;54.444;18.444;2023-06-10T02:53:44;5.00;;;1.65;;
17145;SDS011;8688;54.444;18.444;2023-06-10T02:56:13;4.43;;;1.60;;
17145;SDS011;8688;54.444;18.444;2023-06-10T02:58:42;4.78;;;1.83;;
17145;SDS011;8688;54.444;18.444;2023-06-10T03:01:09;6.07;;;1.60;;
17145;SDS011;8688;54.444;18.444;2023-06-10T03:03:38;3.70;;;1.20;;
17145;SDS011;8688;54.444;18.444;2023-06-10T03:06:07;3.40;;;1.30;;
17145;SDS011;8688;54.444;18.444;2023-06-10T03:08:37;5.07;;;1.50;;
17145;SDS011;8688;54.444;18.444;2023-06-10T03:11:05;5.38;;;1.55;;
17145;SDS011;8688;54.444;18.444;2023-06-10T03:13:33;4.60;;;1.20;;
17145;SDS011;8688;54.444;18.444;2023-06-10T03:16:00;5.82;;;1.50;;
17145;SDS011;8688;54.444;18.444;2023-06-10T03:18:28;3.45;;;1.40;;
17145;SDS011;8688;54.444;18.444;2023-06-10T03:20:57;3.67;;;1.20;;
17145;SDS011;8688;54.444;18.444;2023-06-10T03:23:25;5.85;;;1.83;;
17145;SDS011;8688;54.444;18.444;2023-06-10T03:25:54;4.07;;;1.25;;
17145;SDS011;8688;54.444;18.444;2023-06-10T03:28:21;7.72;;;1.70;;
17145;SDS011;8688;54.444;18.444;2023-06-10T03:30:49;5.57;;;1.55;;
17145;SDS011;8688;54.444;18.444;2023-06-10T03:33:17;3.80;;;1.30;;
17145;SDS011;8688;54.444;18.444;2023-06-10T03:35:45;6.68;;;1.45;;
17145;SDS011;8688;54.444;18.444;2023-06-10T03:38:14;3.83;;;1.63;;
17145;SDS011;8688;54.444;18.444;2023-06-10T03:40:42;7.70;;;1.90;;
17145;SDS011;8688;54.444;18.444;2023-06-10T03:43:09;5.57;;;1.70;;
17145;SDS011;8688;54.444;18.444;2023-06-10T03:45:37;3.70;;;1.63;;
17145;SDS011;8688;54.444;18.444;2023-06-10T03:48:06;1.98;;;1.25;;
17145;SDS011;8688;54.444;18.444;2023-06-10T03:50:34;5.95;;;1.60;;
17145;SDS011;8688;54.444;18.444;2023-06-10T03:53:02;5.20;;;1.65;;
17145;SDS011;8688;54.444;18.444;2023-06-10T03:55:31;5.97;;;1.58;;
17145;SDS011;8688;54.444;18.444;2023-06-10T03:57:59;3.92;;;1.50;;
17145;SDS011;8688;54.444;18.444;2023-06-10T04:00:26;4.13;;;1.50;;
17145;SDS011;8688;54.444;18.444;2023-06-10T04:02:54;5.30;;;1.40;;
17145;SDS011;8688;54.444;18.444;2023-06-10T04:05:23;7.85;;;1.52;;
17145;SDS011;8688;54.444;18.444;2023-06-10T04:07:51;5.78;;;1.73;;
17145;SDS011;8688;54.444;18.444;2023-06-10T04:10:18;4.07;;;1.60;;
17145;SDS011;8688;54.444;18.444;2023-06-10T04:12:47;4.90;;;1.55;;
17145;SDS011;8688;54.444;18.444;2023-06-10T04:15:15;3.15;;;1.50;;
17145;SDS011;8688;54.444;18.444;2023-06-10T04:17:42;4.50;;;1.40;;
17145;SDS011;8688;54.444;18.444;2023-06-10T04:20:11;3.83;;;1.40;;
17145;SDS011;8688;54.444;18.444;2023-06-10T04:22:38;2.60;;;1.40;;
17145;SDS011;8688;54.444;18.444;2023-06-10T04:25:06;5.43;;;1.40;;
17145;SDS011;8688;54.444;18.444;2023-06-10T04:27:35;2.72;;;1.42;;
17145;SDS011;8688;54.444;18.444;2023-06-10T04:30:04;4.80;;;1.70;;
17145;SDS011;8688;54.444;18.444;2023-06-10T04:32:33;6.20;;;1.33;;
17145;SDS011;8688;54.444;18.444;2023-06-10T04:35:00;4.13;;;1.63;;
17145;SDS011;8688;54.444;18.444;2023-06-10T04:37:28;5.10;;;1.40;;
17145;SDS011;8688;54.444;18.444;2023-06-10T04:39:56;4.50;;;1.58;;
17145;SDS011;8688;54.444;18.444;2023-06-10T04:42:24;4.63;;;1.48;;
17145;SDS011;8688;54.444;18.444;2023-06-10T04:44:51;7.55;;;1.75;;
17145;SDS011;8688;54.444;18.444;2023-06-10T04:47:20;4.05;;;1.65;;
17145;SDS011;8688;54.444;18.444;2023-06-10T04:49:48;3.08;;;1.58;;
17145;SDS011;8688;54.444;18.444;2023-06-10T04:52:16;4.10;;;1.48;;
17145;SDS011;8688;54.444;18.444;2023-06-10T04:54:44;2.33;;;1.60;;
17145;SDS011;8688;54.444;18.444;2023-06-10T04:57:11;5.93;;;1.70;;
17145;SDS011;8688;54.444;18.444;2023-06-10T04:59:39;3.85;;;1.73;;
17145;SDS011;8688;54.444;18.444;2023-06-10T05:02:06;3.72;;;1.65;;
17145;SDS011;8688;54.444;18.444;2023-06-10T05:04:35;8.35;;;1.88;;
17145;SDS011;8688;54.444;18.444;2023-06-10T05:07:03;2.78;;;1.30;;
17145;SDS011;8688;54.444;18.444;2023-06-10T05:09:31;2.83;;;1.60;;
17145;SDS011;8688;54.444;18.444;2023-06-10T05:11:59;4.75;;;1.80;;
17145;SDS011;8688;54.444;18.444;2023-06-10T05:14:27;6.22;;;2.00;;
17145;SDS011;8688;54.444;18.444;2023-06-10T05:16:55;4.68;;;1.63;;
17145;SDS011;8688;54.444;18.444;2023-06-10T05:19:22;3.97;;;1.80;;
17145;SDS011;8688;54.444;18.444;2023-06-10T05:21:52;6.20;;;1.80;;
17145;SDS011;8688;54.444;18.444;2023-06-10T05:24:19;4.78;;;1.80;;
17145;SDS011;8688;54.444;18.444;2023-06-10T05:26:46;2.85;;;1.58;;
17145;SDS011;8688;54.444;18.444;2023-06-10T05:29:15;2.67;;;1.50;;
17145;SDS011;8688;54.444;18.444;2023-06-10T05:31:42;3.42;;;1.80;;
17145;SDS011;8688;54.444;18.444;2023-06-10T05:34:10;3.83;;;1.50;;
17145;SDS011;8688;54.444;18.444;2023-06-10T05:36:37;3.28;;;1.65;;
17145;SDS011;8688;54.444;18.444;2023-06-10T05:39:06;10.82;;;1.70;;
17145;SDS011;8688;54.444;18.444;2023-06-10T05:41:34;3.60;;;1.48;;
17145;SDS011;8688;54.444;18.444;2023-06-10T05:44:01;6.13;;;1.70;;
17145;SDS011;8688;54.444;18.444;2023-06-10T05:46:29;2.63;;;1.60;;
17145;SDS011;8688;54.444;18.444;2023-06-10T05:48:57;6.22;;;2.08;;
17145;SDS011;8688;54.444;18.444;2023-06-10T05:51:25;3.65;;;1.50;;
17145;SDS011;8688;54.444;18.444;2023-06-10T05:53:53;6.45;;;1.50;;
17145;SDS011;8688;54.444;18.444;2023-06-10T05:56:22;3.60;;;1.67;;
17145;SDS011;8688;54.444;18.444;2023-06-10T05:58:51;3.58;;;1.90;;
17145;SDS011;8688;54.444;18.444;2023-06-10T06:01:18;4.25;;;1.52;;
17145;SDS011;8688;54.444;18.444;2023-06-10T06:03:46;4.05;;;1.50;;
17145;SDS011;8688;54.444;18.444;2023-06-10T06:06:13;4.50;;;1.50;;
17145;SDS011;8688;54.444;18.444;2023-06-10T06:08:41;5.30;;;1.67;;
17145;SDS011;8688;54.444;18.444;2023-06-10T06:11:08;3.47;;;1.50;;
17145;SDS011;8688;54.444;18.444;2023-06-10T06:13:37;1.85;;;1.23;;
17145;SDS011;8688;54.444;18.444;2023-06-10T06:16:05;3.45;;;1.40;;
17145;SDS011;8688;54.444;18.444;2023-06-10T06:18:32;6.78;;;1.60;;
17145;SDS011;8688;54.444;18.444;2023-06-10T06:21:00;3.88;;;1.70;;
17145;SDS011;8688;54.444;18.444;2023-06-10T06:23:27;6.10;;;1.70;;
17145;SDS011;8688;54.444;18.444;2023-06-10T06:25:55;2.63;;;1.35;;
17145;SDS011;8688;54.444;18.444;2023-06-10T06:28:23;3.30;;;1.45;;
17145;SDS011;8688;54.444;18.444;2023-06-10T06:30:55;3.90;;;1.52;;
17145;SDS011;8688;54.444;18.444;2023-06-10T06:33:23;5.22;;;1.65;;
17145;SDS011;8688;54.444;18.444;2023-06-10T06:35:51;2.75;;;1.52;;
17145;SDS011;8688;54.444;18.444;2023-06-10T06:38:19;5.20;;;1.20;;
17145;SDS011;8688;54.444;18.444;2023-06-10T06:40:46;3.72;;;1.20;;
17145;SDS011;8688;54.444;18.444;2023-06-10T06:43:14;3.08;;;1.42;;
17145;SDS011;8688;54.444;18.444;2023-06-10T06:45:42;3.67;;;1.30;;
17145;SDS011;8688;54.444;18.444;2023-06-10T06:48:11;3.83;;;1.50;;
17145;SDS011;8688;54.444;18.444;2023-06-10T06:50:39;3.28;;;1.02;;
17145;SDS011;8688;54.444;18.444;2023-06-10T06:53:07;3.15;;;1.35;;
17145;SDS011;8688;54.444;18.444;2023-06-10T06:55:34;2.53;;;1.23;;
17145;SDS011;8688;54.444;18.444;2023-06-10T06:58:02;2.50;;;1.30;;
17145;SDS011;8688;54.444;18.444;2023-06-10T07:00:30;3.75;;;1.30;;
17145;SDS011;8688;54.444;18.444;2023-06-10T07:02:58;4.57;;;1.60;;
17145;SDS011;8688;54.444;18.444;2023-06-10T07:05:27;3.10;;;1.40;;
17145;SDS011;8688;54.444;18.444;2023-06-10T07:07:56;4.47;;;1.52;;
17145;SDS011;8688;54.444;18.444;2023-06-10T07:10:23;3.50;;;1.27;;
17145;SDS011;8688;54.444;18.444;2023-06-10T07:12:51;2.47;;;1.30;;
17145;SDS011;8688;54.444;18.444;2023-06-10T07:15:19;4.22;;;1.25;;
17145;SDS011;8688;54.444;18.444;2023-06-10T07:17:47;2.45;;;0.98;;
17145;SDS011;8688;54.444;18.444;2023-06-10T07:20:15;2.55;;;1.38;;
17145;SDS011;8688;54.444;18.444;2023-06-10T07:22:44;4.45;;;0.95;;
17145;SDS011;8688;54.444;18.444;2023-06-10T07:25:12;3.25;;;1.20;;
17145;SDS011;8688;54.444;18.444;2023-06-10T07:27:40;3.22;;;1.10;;
17145;SDS011;8688;54.444;18.444;2023-06-10T07:30:08;2.53;;;1.20;;
17145;SDS011;8688;54.444;18.444;2023-06-10T07:32:36;2.78;;;1.23;;
17145;SDS011;8688;54.444;18.444;2023-06-10T07:35:06;1.52;;;1.33;;
17145;SDS011;8688;54.444;18.444;2023-06-10T07:37:35;2.90;;;1.20;;
17145;SDS011;8688;54.444;18.444;2023-06-10T07:40:05;2.17;;;1.40;;
17145;SDS011;8688;54.444;18.444;2023-06-10T07:42:34;4.40;;;2.45;;
17145;SDS011;8688;54.444;18.444;2023-06-10T07:45:02;6.80;;;1.50;;
17145;SDS011;8688;54.444;18.444;2023-06-10T07:47:30;3.83;;;1.10;;
17145;SDS011;8688;54.444;18.444;2023-06-10T07:50:00;3.25;;;1.45;;
17145;SDS011;8688;54.444;18.444;2023-06-10T07:52:27;6.28;;;1.70;;
17145;SDS011;8688;54.444;18.444;2023-06-10T07:54:56;2.15;;;1.20;;
17145;SDS011;8688;54.444;18.444;2023-06-10T07:57:25;4.03;;;1.10;;
17145;SDS011;8688;54.444;18.444;2023-06-10T07:59:52;6.72;;;1.27;;
17145;SDS011;8688;54.444;18.444;2023-06-10T08:02:22;4.10;;;1.10;;
17145;SDS011;8688;54.444;18.444;2023-06-10T08:04:50;2.72;;;1.20;;
17145;SDS011;8688;54.444;18.444;2023-06-10T08:07:17;3.88;;;1.20;;
17145;SDS011;8688;54.444;18.444;2023-06-10T08:09:45;3.80;;;1.15;;
17145;SDS011;8688;54.444;18.444;2023-06-10T08:12:13;2.55;;;1.05;;
17145;SDS011;8688;54.444;18.444;2023-06-10T08:14:42;1.80;;;0.90;;
17145;SDS011;8688;54.444;18.444;2023-06-10T08:17:10;3.25;;;1.15;;
17145;SDS011;8688;54.444;18.444;2023-06-10T08:19:38;2.33;;;1.30;;
17145;SDS011;8688;54.444;18.444;2023-06-10T08:22:05;4.85;;;1.75;;
17145;SDS011;8688;54.444;18.444;2023-06-10T08:24:33;4.82;;;1.90;;
17145;SDS011;8688;54.444;18.444;2023-06-10T08:27:01;4.00;;;1.38;;
17145;SDS011;8688;54.444;18.444;2023-06-10T08:29:28;5.03;;;1.50;;
17145;SDS011;8688;54.444;18.444;2023-06-10T08:31:58;1.92;;;1.10;;
17145;SDS011;8688;54.444;18.444;2023-06-10T08:34:26;2.08;;;1.10;;
17145;SDS011;8688;54.444;18.444;2023-06-10T08:36:54;6.28;;;1.48;;
17145;SDS011;8688;54.444;18.444;2023-06-10T08:39:21;2.25;;;1.20;;
17145;SDS011;8688;54.444;18.444;2023-06-10T08:41:50;12.07;;;1.80;;
17145;SDS011;8688;54.444;18.444;2023-06-10T08:44:35;5.55;;;1.70;;
17145;SDS011;8688;54.444;18.444;2023-06-10T08:47:08;6.50;;;1.27;;
17145;SDS011;8688;54.444;18.444;2023-06-10T08:49:41;4.72;;;1.20;;
17145;SDS011;8688;54.444;18.444;2023-06-10T08:52:11;2.75;;;1.30;;
17145;SDS011;8688;54.444;18.444;2023-06-10T08:54:42;4.80;;;1.25;;
17145;SDS011;8688;54.444;18.444;2023-06-10T08:57:14;3.55;;;0.98;;
17145;SDS011;8688;54.444;18.444;2023-06-10T08:59:43;2.03;;;1.27;;
17145;SDS011;8688;54.444;18.444;2023-06-10T09:02:12;6.43;;;1.17;;
17145;SDS011;8688;54.444;18.444;2023-06-10T09:04:41;4.07;;;1.13;;
17145;SDS011;8688;54.444;18.444;2023-06-10T09:07:10;5.50;;;1.30;;
17145;SDS011;8688;54.444;18.444;2023-06-10T09:09:39;5.78;;;1.40;;
17145;SDS011;8688;54.444;18.444;2023-06-10T09:12:09;2.35;;;0.93;;
17145;SDS011;8688;54.444;18.444;2023-06-10T09:14:36;9.23;;;2.15;;
17145;SDS011;8688;54.444;18.444;2023-06-10T09:17:05;4.45;;;1.40;;
17145;SDS011;8688;54.444;18.444;2023-06-10T09:19:34;3.35;;;1.20;;
17145;SDS011;8688;54.444;18.444;2023-06-10T09:22:03;2.13;;;1.13;;
17145;SDS011;8688;54.444;18.444;2023-06-10T09:24:31;4.03;;;0.90;;
17145;SDS011;8688;54.444;18.444;2023-06-10T09:27:03;4.93;;;1.35;;
17145;SDS011;8688;54.444;18.444;2023-06-10T09:29:31;1.83;;;1.20;;
17145;SDS011;8688;54.444;18.444;2023-06-10T09:32:11;3.08;;;1.10;;
17145;SDS011;8688;54.444;18.444;2023-06-10T09:34:41;3.72;;;1.00;;
17145;SDS011;8688;54.444;18.444;2023-06-10T09:37:10;4.25;;;1.13;;
17145;SDS011;8688;54.444;18.444;2023-06-10T09:39:39;6.00;;;1.10;;
17145;SDS011;8688;54.444;18.444;2023-06-10T09:42:15;5.60;;;1.10;;
17145;SDS011;8688;54.444;18.444;2023-06-10T09:44:48;5.95;;;1.50;;
17145;SDS011;8688;54.444;18.444;2023-06-10T09:47:19;3.83;;;1.50;;
17145;SDS011;8688;54.444;18.444;2023-06-10T09:49:49;3.40;;;1.40;;
17145;SDS011;8688;54.444;18.444;2023-06-10T09:52:21;4.32;;;1.52;;
17145;SDS011;8688;54.444;18.444;2023-06-10T09:54:49;3.70;;;1.30;;
17145;SDS011;8688;54.444;18.444;2023-06-10T09:57:18;2.90;;;1.35;;
17145;SDS011;8688;54.444;18.444;2023-06-10T09:59:46;3.15;;;1.30;;
17145;SDS011;8688;54.444;18.444;2023-06-10T10:02:14;4.13;;;1.35;;
17145;SDS011;8688;54.444;18.444;2023-06-10T10:04:42;4.38;;;1.40;;
17145;SDS011;8688;54.444;18.444;2023-06-10T10:07:11;4.55;;;1.58;;
17145;SDS011;8688;54.444;18.444;2023-06-10T10:09:40;3.28;;;1.50;;
17145;SDS011;8688;54.444;18.444;2023-06-10T10:12:09;3.38;;;1.20;;
17145;SDS011;8688;54.444;18.444;2023-06-10T10:14:38;3.47;;;1.50;;
17145;SDS011;8688;54.444;18.444;2023-06-10T10:17:07;4.93;;;1.48;;
17145;SDS011;8688;54.444;18.444;2023-06-10T10:19:39;4.60;;;1.55;;
17145;SDS011;8688;54.444;18.444;2023-06-10T10:22:15;3.63;;;1.40;;
17145;SDS011;8688;54.444;18.444;2023-06-10T10:24:46;2.92;;;1.42;;
17145;SDS011;8688;54.444;18.444;2023-06-10T10:27:18;7.45;;;1.50;;
17145;SDS011;8688;54.444;18.444;2023-06-10T10:29:48;4.93;;;1.48;;
17145;SDS011;8688;54.444;18.444;2023-06-10T10:32:20;4.88;;;1.40;;
17145;SDS011;8688;54.444;18.444;2023-06-10T10:35:04;3.10;;;1.50;;
17145;SDS011;8688;54.444;18.444;2023-06-10T10:37:36;4.85;;;1.40;;
17145;SDS011;8688;54.444;18.444;2023-06-10T10:40:04;3.40;;;1.23;;
17145;SDS011;8688;54.444;18.444;2023-06-10T10:42:34;6.97;;;1.63;;
17145;SDS011;8688;54.444;18.444;2023-06-10T10:45:02;7.53;;;1.50;;
17145;SDS011;8688;54.444;18.444;2023-06-10T10:47:30;2.92;;;1.60;;
17145;SDS011;8688;54.444;18.444;2023-06-10T10:50:00;4.18;;;1.42;;
17145;SDS011;8688;54.444;18.444;2023-06-10T10:52:41;4.18;;;1.63;;
17145;SDS011;8688;54.444;18.444;2023-06-10T10:55:18;4.40;;;1.55;;
17145;SDS011;8688;54.444;18.444;2023-06-10T10:57:53;3.60;;;1.50;;
17145;SDS011;8688;54.444;18.444;2023-06-10T11:00:28;5.63;;;1.42;;
17145;SDS011;8688;54.444;18.444;2023-06-10T11:02:57;2.25;;;1.25;;
17145;SDS011;8688;54.444;18.444;2023-06-10T11:05:36;4.07;;;1.33;;
17145;SDS011;8688;54.444;18.444;2023-06-10T11:08:07;4.40;;;1.35;;
17145;SDS011;8688;54.444;18.444;2023-06-10T11:10:35;2.97;;;1.58;;
17145;SDS011;8688;54.444;18.444;2023-06-10T11:13:07;3.92;;;1.58;;
17145;SDS011;8688;54.444;18.444;2023-06-10T11:15:38;4.07;;;1.33;;
17145;SDS011;8688;54.444;18.444;2023-06-10T11:18:10;3.15;;;1.30;;
17145;SDS011;8688;54.444;18.444;2023-06-10T11:20:46;4.15;;;1.50;;
17145;SDS011;8688;54.444;18.444;2023-06-10T11:23:39;3.58;;;1.50;;
17145;SDS011;8688;54.444;18.444;2023-06-10T11:26:09;3.17;;;1.50;;
17145;SDS011;8688;54.444;18.444;2023-06-10T11:28:40;7.30;;;1.35;;
17145;SDS011;8688;54.444;18.444;2023-06-10T11:31:09;3.50;;;1.33;;
17145;SDS011;8688;54.444;18.444;2023-06-10T11:33:46;3.38;;;1.23;;
17145;SDS011;8688;54.444;18.444;2023-06-10T11:36:14;6.28;;;1.58;;
17145;SDS011;8688;54.444;18.444;2023-06-10T11:38:45;7.32;;;1.70;;
17145;SDS011;8688;54.444;18.444;2023-06-10T11:41:13;4.13;;;1.55;;
17145;SDS011;8688;54.444;18.444;2023-06-10T11:43:42;4.53;;;1.48;;
17145;SDS011;8688;54.444;18.444;2023-06-10T11:46:10;3.53;;;1.30;;
17145;SDS011;8688;54.444;18.444;2023-06-10T11:48:38;2.90;;;1.27;;
17145;SDS011;8688;54.444;18.444;2023-06-10T11:51:06;2.53;;;1.20;;
17145;SDS011;8688;54.444;18.444;2023-06-10T11:53:33;3.03;;;1.10;;
17145;SDS011;8688;54.444;18.444;2023-06-10T11:56:03;3.22;;;1.20;;
17145;SDS011;8688;54.444;18.444;2023-06-10T11:58:30;4.07;;;1.45;;
17145;SDS011;8688;54.444;18.444;2023-06-10T12:00:58;3.05;;;1.20;;
17145;SDS011;8688;54.444;18.444;2023-06-10T12:03:26;2.28;;;1.40;;
17145;SDS011;8688;54.444;18.444;2023-06-10T12:06:03;4.55;;;1.30;;
17145;SDS011;8688;54.444;18.444;2023-06-10T12:08:31;3.47;;;1.20;;
17145;SDS011;8688;54.444;18.444;2023-06-10T12:10:59;3.92;;;1.35;;
17145;SDS011;8688;54.444;18.444;2023-06-10T12:13:29;4.85;;;1.27;;
17145;SDS011;8688;54.444;18.444;2023-06-10T12:16:05;6.88;;;1.73;;
17145;SDS011;8688;54.444;18.444;2023-06-10T12:18:34;3.85;;;1.25;;
17145;SDS011;8688;54.444;18.444;2023-06-10T12:21:01;3.50;;;1.23;;
17145;SDS011;8688;54.444;18.444;2023-06-10T12:23:30;5.63;;;1.48;;
17145;SDS011;8688;54.444;18.444;2023-06-10T12:25:58;4.00;;;1.35;;
17145;SDS011;8688;54.444;18.444;2023-06-10T12:28:28;3.85;;;1.55;;
17145;SDS011;8688;54.444;18.444;2023-06-10T12:31:05;5.35;;;1.40;;
17145;SDS011;8688;54.444;18.444;2023-06-10T12:33:34;2.95;;;1.17;;
17145;SDS011;8688;54.444;18.444;2023-06-10T12:36:01;6.72;;;1.50;;
17145;SDS011;8688;54.444;18.444;2023-06-10T12:38:29;11.60;;;1.52;;
17145;SDS011;8688;54.444;18.444;2023-06-10T12:41:01;3.55;;;1.30;;
17145;SDS011;8688;54.444;18.444;2023-06-10T12:43:30;3.47;;;1.30;;
17145;SDS011;8688;54.444;18.444;2023-06-10T12:46:08;3.17;;;1.20;;
17145;SDS011;8688;54.444;18.444;2023-06-10T12:48:43;6.25;;;1.38;;
17145;SDS011;8688;54.444;18.444;2023-06-10T12:51:17;6.13;;;1.30;;
17145;SDS011;8688;54.444;18.444;2023-06-10T12:53:45;1.80;;;1.10;;
17145;SDS011;8688;54.444;18.444;2023-06-10T12:56:12;3.00;;;1.20;;
17145;SDS011;8688;54.444;18.444;2023-06-10T12:58:41;3.58;;;1.45;;
17145;SDS011;8688;54.444;18.444;2023-06-10T13:01:09;5.13;;;1.60;;
17145;SDS011;8688;54.444;18.444;2023-06-10T13:03:37;6.97;;;1.20;;
17145;SDS011;8688;54.444;18.444;2023-06-10T13:06:05;4.18;;;1.27;;
17145;SDS011;8688;54.444;18.444;2023-06-10T13:08:33;2.88;;;1.33;;
17145;SDS011;8688;54.444;18.444;2023-06-10T13:11:01;3.80;;;1.13;;
17145;SDS011;8688;54.444;18.444;2023-06-10T13:13:28;2.25;;;1.30;;
17145;SDS011;8688;54.444;18.444;2023-06-10T13:15:57;3.33;;;1.20;;
17145;SDS011;8688;54.444;18.444;2023-06-10T13:18:26;2.83;;;1.23;;
17145;SDS011;8688;54.444;18.444;2023-06-10T13:20:54;4.40;;;1.20;;
17145;SDS011;8688;54.444;18.444;2023-06-10T13:23:21;3.65;;;1.40;;
17145;SDS011;8688;54.444;18.444;2023-06-10T13:25:49;6.43;;;1.23;;
17145;SDS011;8688;54.444;18.444;2023-06-10T13:28:16;5.15;;;1.17;;
17145;SDS011;8688;54.444;18.444;2023-06-10T13:30:44;2.05;;;1.33;;
17145;SDS011;8688;54.444;18.444;2023-06-10T13:33:13;4.57;;;1.20;;
17145;SDS011;8688;54.444;18.444;2023-06-10T13:35:40;4.05;;;1.20;;
17145;SDS011;8688;54.444;18.444;2023-06-10T13:38:08;6.03;;;1.30;;
17145;SDS011;8688;54.444;18.444;2023-06-10T13:40:36;4.63;;;1.48;;
17145;SDS011;8688;54.444;18.444;2023-06-10T13:43:03;5.60;;;1.48;;
17145;SDS011;8688;54.444;18.444;2023-06-10T13:45:31;2.13;;;1.30;;
17145;SDS011;8688;54.444;18.444;2023-06-10T13:47:58;2.25;;;1.30;;
17145;SDS011;8688;54.444;18.444;2023-06-10T13:50:28;3.40;;;1.20;;
17145;SDS011;8688;54.444;18.444;2023-06-10T13:52:55;3.40;;;1.35;;
17145;SDS011;8688;54.444;18.444;2023-06-10T13:55:23;2.40;;;1.35;;
17145;SDS011;8688;54.444;18.444;2023-06-10T13:57:51;2.83;;;1.40;;
17145;SDS011;8688;54.444;18.444;2023-06-10T14:00:18;3.05;;;1.35;;
17145;SDS011;8688;54.444;18.444;2023-06-10T14:02:46;2.55;;;1.30;;
17145;SDS011;8688;54.444;18.444;2023-06-10T14:05:14;7.85;;;1.70;;
17145;SDS011;8688;54.444;18.444;2023-06-10T14:07:43;2.15;;;1.30;;
17145;SDS011;8688;54.444;18.444;2023-06-10T14:10:10;2.45;;;1.20;;
17145;SDS011;8688;54.444;18.444;2023-06-10T14:12:38;6.95;;;1.45;;
17145;SDS011;8688;54.444;18.444;2023-06-10T14:15:06;1.63;;;1.10;;
17145;SDS011;8688;54.444;18.444;2023-06-10T14:17:34;3.60;;;1.27;;
17145;SDS011;8688;54.444;18.444;2023-06-10T14:20:01;4.28;;;1.30;;
17145;SDS011;8688;54.444;18.444;2023-06-10T14:22:30;3.53;;;1.10;;
17145;SDS011;8688;54.444;18.444;2023-06-10T14:24:59;3.80;;;1.30;;
17145;SDS011;8688;54.444;18.444;2023-06-10T14:27:26;4.35;;;1.30;;
17145;SDS011;8688;54.444;18.444;2023-06-10T14:29:54;1.65;;;1.10;;
17145;SDS011;8688;54.444;18.444;2023-06-10T14:32:22;2.58;;;1.10;;
17145;SDS011;8688;54.444;18.444;2023-06-10T14:34:49;7.68;;;1.50;;
17145;SDS011;8688;54.444;18.444;2023-06-10T14:37:17;3.65;;;1.27;;
17145;SDS011;8688;54.444;18.444;2023-06-10T14:39:44;3.22;;;1.42;;
17145;SDS011;8688;54.444;18.444;2023-06-10T14:42:13;2.67;;;1.30;;
17145;SDS011;8688;54.444;18.444;2023-06-10T14:44:41;7.75;;;1.60;;
17145;SDS011;8688;54.444;18.444;2023-06-10T14:47:08;3.63;;;1.08;;
17145;SDS011;8688;54.444;18.444;2023-06-10T14:49:36;2.13;;;1.10;;
17145;SDS011;8688;54.444;18.444;2023-06-10T14:52:04;2.83;;;1.27;;
17145;SDS011;8688;54.444;18.444;2023-06-10T14:54:31;4.72;;;1.60;;
17145;SDS011;8688;54.444;18.444;2023-06-10T14:56:59;2.75;;;1.20;;